Time;durP1;ratioP1;P1;durP2;ratioP2;P2;SDS_P1;SDS_P2;PMS_P1;PMS_P2;Temp;Humidity;BMP_temperature;BMP_pressure;BME280_temperature;BME280_humidity;BME280_pressure;Samples;Min_cycle;Max_cycle;Signal;HPM_P1;HPM_P2
2022/09/29 00:00:41;;;;;;;12.40;4.65;;;;;;;3.81;100.00;96931.41;2644552;27;20438;-81
2022/09/29 00:02:15;;;;;;;84.30;7.50;;;;;;;4.06;100.00;96931.63;2645241;27;20082;-81
2022/09/29 00:03:31;;;;;;;37.75;5.47;;;;;;;3.85;100.00;96937.34;2642937;27;20047;-81
2022/09/29 00:04:47;;;;;;;23.63;4.90;;;;;;;3.79;100.00;96934.03;2642664;27;20052;-80
2022/09/29 00:06:02;;;;;;;16.58;4.55;;;;;;;3.69;100.00;96929.97;2642300;27;20422;-80
2022/09/29 00:07:18;;;;;;;11.15;4.55;;;;;;;3.69;100.00;96932.56;2644008;27;20580;-81
2022/09/29 00:08:33;;;;;;;20.67;4.68;;;;;;;3.85;100.00;96934.75;2643841;27;20044;-85
2022/09/29 00:09:49;;;;;;;12.93;4.80;;;;;;;3.67;100.00;96935.19;2643722;27;20043;-83
2022/09/29 00:11:10;;;;;;;12.55;4.47;;;;;;;3.72;100.00;96939.41;2642871;27;20485;-82
2022/09/29 00:12:26;;;;;;;10.70;4.68;;;;;;;3.74;100.00;96935.03;2643818;27;20112;-80
2022/09/29 00:13:42;;;;;;;11.80;4.45;;;;;;;3.84;100.00;96941.66;2643825;27;20131;-84
2022/09/29 00:14:58;;;;;;;8.82;5.13;;;;;;;3.99;100.00;96943.03;2642455;27;20096;-80
2022/09/29 00:16:14;;;;;;;8.93;4.40;;;;;;;3.86;100.00;96939.06;2643743;27;20477;-82
2022/09/29 00:17:29;;;;;;;10.45;5.18;;;;;;;4.08;100.00;96945.38;2641795;27;20060;-81
2022/09/29 00:18:45;;;;;;;8.00;4.90;;;;;;;4.19;100.00;96941.63;2642256;27;20055;-81
2022/09/29 00:20:01;;;;;;;13.02;4.93;;;;;;;4.25;100.00;96936.31;2643990;27;20956;-81
2022/09/29 00:21:20;;;;;;;8.65;4.10;;;;;;;4.24;100.00;96940.63;2644092;27;20066;-87
2022/09/29 00:22:37;;;;;;;7.10;3.95;;;;;;;4.30;100.00;96949.16;2642268;27;20412;-81
2022/09/29 00:23:52;;;;;;;5.28;3.65;;;;;;;4.32;100.00;96947.38;2643980;27;20044;-80
2022/09/29 00:25:08;;;;;;;7.78;4.10;;;;;;;4.39;100.00;96946.28;2641925;27;20043;-81
2022/09/29 00:26:23;;;;;;;5.75;3.67;;;;;;;3.67;100.00;96947.28;2644213;27;20046;-81
2022/09/29 00:27:39;;;;;;;9.70;3.60;;;;;;;3.98;100.00;96948.22;2644443;27;20108;-81
2022/09/29 00:28:57;;;;;;;6.07;3.53;;;;;;;4.35;100.00;96947.28;2641811;27;20047;-84
2022/09/29 00:30:12;;;;;;;9.77;4.05;;;;;;;4.49;100.00;96950.34;2641681;27;20497;-81
2022/09/29 00:31:30;;;;;;;38.30;5.18;;;;;;;4.60;100.00;96939.66;2641342;27;20052;-80
2022/09/29 00:32:46;;;;;;;49.15;5.80;;;;;;;4.60;100.00;96939.66;2642962;27;20055;-81
2022/09/29 00:34:02;;;;;;;46.70;5.75;;;;;;;4.48;100.00;96942.63;2644254;27;20047;-81
2022/09/29 00:35:18;;;;;;;41.42;4.78;;;;;;;4.40;100.00;96944.56;2642477;27;20577;-83
2022/09/29 00:36:33;;;;;;;42.05;7.18;;;;;;;4.45;100.00;96940.09;2642118;27;20047;-81
2022/09/29 00:37:49;;;;;;;65.82;7.80;;;;;;;4.45;100.00;96943.53;2642958;27;20380;-81
2022/09/29 00:39:05;;;;;;;75.00;7.30;;;;;;;4.46;100.00;96936.59;2642293;27;20462;-81
2022/09/29 00:40:21;;;;;;;63.95;7.68;;;;;;;4.49;100.00;96942.56;2641333;27;20054;-81
2022/09/29 00:41:38;;;;;;;12.60;4.95;;;;;;;4.50;100.00;96936.47;2641750;27;20051;-80
2022/09/29 00:42:53;;;;;;;86.10;6.15;;;;;;;4.20;100.00;96943.38;2642193;27;20058;-81
2022/09/29 00:44:12;;;;;;;9.18;4.57;;;;;;;4.33;100.00;96944.75;2641312;27;20048;-84
2022/09/29 00:45:27;;;;;;;86.55;6.63;;;;;;;4.39;100.00;96938.50;2641889;27;20055;-82
2022/09/29 00:46:46;;;;;;;21.52;3.75;;;;;;;4.26;100.00;96945.78;2641743;27;20122;-83
2022/09/29 00:48:07;;;;;;;70.63;5.38;;;;;;;4.38;100.00;96939.41;2640933;27;20052;-81
2022/09/29 00:49:27;;;;;;;144.18;8.75;;;;;;;4.56;100.00;96938.06;2642194;27;20047;-82
2022/09/29 00:50:49;;;;;;;135.40;8.30;;;;;;;4.67;100.00;96945.50;2642500;27;20083;-81
2022/09/29 00:52:11;;;;;;;107.43;6.50;;;;;;;4.42;100.00;96941.03;2641223;27;20047;-81
2022/09/29 00:53:27;;;;;;;165.27;12.20;;;;;;;4.48;100.00;96943.44;2643327;27;20145;-80
2022/09/29 00:54:57;;;;;;;74.60;5.47;;;;;;;4.35;100.00;96942.97;2642658;27;20109;-82
2022/09/29 00:56:16;;;;;;;198.73;11.10;;;;;;;4.36;100.00;96944.66;2642585;27;20494;-81
2022/09/29 00:57:40;;;;;;;95.72;5.28;;;;;;;4.35;100.00;96945.53;2642843;27;20157;-83
2022/09/29 00:59:00;;;;;;;86.20;5.70;;;;;;;4.20;100.00;96943.38;2643358;27;20096;-82
2022/09/29 01:00:16;;;;;;;84.25;7.05;;;;;;;4.31;100.00;96943.06;2641129;27;20481;-83
2022/09/29 01:01:31;;;;;;;89.65;6.63;;;;;;;4.37;100.00;96946.34;2640998;27;20047;-83
2022/09/29 01:03:00;;;;;;;76.13;4.93;;;;;;;4.18;100.00;96950.31;2643825;27;20391;-84
2022/09/29 01:04:18;;;;;;;17.50;3.38;;;;;;;4.23;100.00;96949.28;2642382;27;20063;-83
2022/09/29 01:05:39;;;;;;;53.40;4.13;;;;;;;4.31;100.00;96954.28;2644559;27;20043;-82
2022/09/29 01:06:57;;;;;;;58.33;3.97;;;;;;;4.21;100.00;96952.84;2641467;27;20047;-81
2022/09/29 01:08:23;;;;;;;37.65;4.07;;;;;;;4.04;100.00;96948.09;2642317;27;20554;-85
2022/09/29 01:09:41;;;;;;;25.00;3.85;;;;;;;4.06;100.00;96954.06;2642469;27;20047;-81
2022/09/29 01:10:59;;;;;;;59.40;5.95;;;;;;;4.13;100.00;96950.47;2641361;27;20478;-81
2022/09/29 01:12:15;;;;;;;63.95;7.90;;;;;;;4.27;100.00;96951.84;2641406;27;20126;-82
2022/09/29 01:13:33;;;;;;;41.28;4.72;;;;;;;4.29;100.00;96953.47;2641127;27;20096;-80
2022/09/29 01:14:49;;;;;;;61.58;5.30;;;;;;;4.27;100.00;96949.25;2641230;27;20374;-81
2022/09/29 01:16:05;;;;;;;43.75;5.13;;;;;;;4.23;100.00;96951.06;2640842;27;20074;-81
2022/09/29 01:17:24;;;;;;;21.63;3.92;;;;;;;4.22;100.00;96946.75;2640905;27;20070;-81
2022/09/29 01:18:41;;;;;;;10.88;3.58;;;;;;;4.32;100.00;96957.72;2642846;27;20557;-84
2022/09/29 01:20:19;;;;;;;52.63;5.07;;;;;;;4.22;100.00;96957.13;2641028;27;20082;-81
2022/09/29 01:21:49;;;;;;;49.75;4.47;;;;;;;4.21;100.00;96968.38;2642071;27;20067;-81
2022/09/29 01:23:37;;;;;;;20.02;3.67;;;;;;;4.26;100.00;96969.09;2643199;27;20047;-85
2022/09/29 01:25:31;;;;;;;38.55;4.32;;;;;;;4.36;100.00;96970.56;2644313;27;20413;-80
2022/09/29 01:27:03;;;;;;;7.93;3.72;;;;;;;4.55;100.00;96966.63;2643372;27;20047;-81
2022/09/29 01:28:31;;;;;;;13.27;3.63;;;;;;;4.58;100.00;96966.53;2642323;27;20075;-87
2022/09/29 01:29:55;;;;;;;12.68;3.17;;;;;;;4.72;100.00;96976.50;2632540;28;20077;-81
2022/09/29 01:31:34;;;;;;;61.85;5.63;;;;;;;4.79;100.00;96971.09;2635025;27;20134;-83
2022/09/29 01:33:15;;;;;;;34.88;4.63;;;;;;;4.62;100.00;96965.56;2643022;27;20054;-80
2022/09/29 01:35:18;;;;;;;49.38;4.30;;;;;;;4.24;100.00;96969.13;2641621;27;20417;-81
2022/09/29 01:36:57;;;;;;;44.05;4.13;;;;;;;3.96;100.00;96961.25;2587758;28;20053;-81
2022/09/29 01:38:26;;;;;;;52.47;4.50;;;;;;;3.71;100.00;96961.84;2589708;28;20575;-82
2022/09/29 01:39:50;;;;;;;38.90;4.15;;;;;;;3.79;100.00;96967.69;2589233;28;20053;-81
2022/09/29 01:41:17;;;;;;;23.95;4.05;;;;;;;3.85;100.00;96952.88;2589081;28;20073;-82
2022/09/29 01:42:39;;;;;;;6.63;3.28;;;;;;;3.62;100.00;96955.16;2641260;27;20086;-81
2022/09/29 01:44:02;;;;;;;20.60;4.00;;;;;;;3.75;100.00;96958.28;2632660;28;20119;-81
2022/09/29 01:45:31;;;;;;;;;;;;;;;3.79;100.00;96961.66;2635441;28;20054;-79
2022/09/29 01:47:06;;;;;;;12.75;3.25;;;;;;;3.68;100.00;96962.75;2640787;27;19931;-83
2022/09/29 01:48:28;;;;;;;7.30;3.92;;;;;;;3.57;100.00;96964.78;2643017;28;20089;-82
2022/09/29 01:49:49;;;;;;;7.10;4.05;;;;;;;3.67;100.00;96962.81;2642616;27;20047;-83
2022/09/29 01:51:11;;;;;;;11.38;3.75;;;;;;;3.66;100.00;96966.28;2643183;27;20047;-83
2022/09/29 01:52:32;;;;;;;12.77;4.38;;;;;;;3.87;100.00;96954.56;2642413;28;20367;-85
2022/09/29 01:53:59;;;;;;;15.07;5.13;;;;;;;3.92;100.00;96969.97;2642892;27;20100;-82
2022/09/29 01:55:20;;;;;;;24.85;4.80;;;;;;;3.77;100.00;96966.88;2607591;28;20415;-82
2022/09/29 01:56:44;;;;;;;12.60;4.22;;;;;;;3.83;100.00;96963.28;2625317;28;20052;-81
2022/09/29 01:58:18;;;;;;;17.15;5.05;;;;;;;3.98;100.00;96962.03;2643399;28;20047;-83
2022/09/29 02:00:01;;;;;;;21.83;4.47;;;;;;;4.10;100.00;96959.16;2619048;28;20072;-81
2022/09/29 02:01:22;;;;;;;23.30;4.63;;;;;;;4.06;100.00;96965.31;2636942;28;20478;-81
2022/09/29 02:02:50;;;;;;;22.50;4.65;;;;;;;3.96;100.00;96967.25;2643097;28;20051;-80
2022/09/29 02:04:29;;;;;;;27.42;4.72;;;;;;;4.06;100.00;96972.22;2641984;28;20374;-82
2022/09/29 02:06:07;;;;;;;32.47;4.30;;;;;;;4.19;100.00;96967.53;2642749;28;20406;-80
2022/09/29 02:07:35;;;;;;;41.17;4.80;;;;;;;4.28;100.00;96967.31;2630837;28;20052;-83
2022/09/29 02:08:53;;;;;;;23.98;4.10;;;;;;;4.39;100.00;96967.03;2639439;28;20660;-81
2022/09/29 02:10:27;;;;;;;64.10;5.30;;;;;;;4.48;100.00;96963.34;2641244;28;20082;-81
2022/09/29 02:11:44;;;;;;;20.77;4.05;;;;;;;4.58;100.00;96961.34;2643363;28;20050;-80
2022/09/29 02:13:03;;;;;;;34.10;4.75;;;;;;;4.56;100.00;96965.72;2643489;28;20397;-81
2022/09/29 02:14:24;;;;;;;90.50;5.85;;;;;;;4.43;100.00;96971.25;2644209;27;20048;-80
2022/09/29 02:15:45;;;;;;;69.63;4.95;;;;;;;4.38;100.00;96970.50;2645444;27;20043;-84
2022/09/29 02:17:10;;;;;;;155.57;9.82;;;;;;;4.25;100.00;96962.22;2643856;27;20100;-81
2022/09/29 02:18:33;;;;;;;98.22;5.38;;;;;;;4.32;100.00;96968.94;2642579;27;20047;-80
2022/09/29 02:19:50;;;;;;;;;;;;;;;4.15;100.00;96965.94;2646310;27;20073;-85
2022/09/29 02:21:06;;;;;;;57.53;4.28;;;;;;;4.37;100.00;96964.50;2643863;27;19935;-81
2022/09/29 02:22:21;;;;;;;131.13;5.85;;;;;;;4.30;100.00;96968.13;2642887;27;20054;-82
2022/09/29 02:23:37;;;;;;;94.35;6.45;;;;;;;4.48;100.00;96966.78;2645137;27;20092;-82
2022/09/29 02:24:58;;;;;;;40.85;3.60;;;;;;;4.43;100.00;96967.78;2642642;27;20128;-82
2022/09/29 02:26:13;;;;;;;36.95;3.45;;;;;;;4.16;100.00;96967.63;2644085;27;20090;-82
2022/09/29 02:27:29;;;;;;;93.68;5.90;;;;;;;4.09;100.00;96974.72;2645540;27;20050;-80
2022/09/29 02:28:46;;;;;;;57.15;4.93;;;;;;;4.17;100.00;96974.50;2644258;27;20051;-86
2022/09/29 02:30:05;;;;;;;91.78;5.60;;;;;;;4.24;100.00;96976.91;2642726;27;20043;-80
2022/09/29 02:31:22;;;;;;;32.28;3.47;;;;;;;4.32;100.00;96970.69;2644720;27;20051;-87
2022/09/29 02:32:37;;;;;;;45.90;3.75;;;;;;;4.18;100.00;96974.47;2642863;27;20162;-81
2022/09/29 02:33:53;;;;;;;76.30;5.28;;;;;;;4.23;100.00;96974.38;2646046;27;20047;-80
2022/09/29 02:35:11;;;;;;;65.13;4.47;;;;;;;4.19;100.00;96977.91;2643644;27;20083;-81
2022/09/29 02:36:40;;;;;;;39.58;3.55;;;;;;;4.10;100.00;96977.28;2643664;27;20964;-80
2022/09/29 02:38:17;;;;;;;56.28;4.28;;;;;;;3.90;100.00;96982.94;2642858;27;20142;-81
2022/09/29 02:39:47;;;;;;;28.58;4.63;;;;;;;4.16;100.00;96975.41;2644203;27;20058;-81
2022/09/29 02:41:16;;;;;;;35.28;3.72;;;;;;;4.10;100.00;96979.88;2643326;27;20059;-81
2022/09/29 02:42:34;;;;;;;30.05;2.83;;;;;;;3.98;100.00;96982.75;2642215;27;20062;-82
2022/09/29 02:44:00;;;;;;;28.27;3.47;;;;;;;3.78;100.00;96984.13;2644337;27;20126;-81
2022/09/29 02:45:47;;;;;;;55.35;4.20;;;;;;;3.78;100.00;96981.53;2642849;27;20059;-80
2022/09/29 02:47:25;;;;;;;42.60;4.28;;;;;;;3.79;100.00;96979.78;2644984;27;20051;-81
2022/09/29 02:49:09;;;;;;;52.67;4.53;;;;;;;3.93;100.00;96982.03;2595058;27;21177;-82
2022/09/29 02:50:30;;;;;;;14.38;2.78;;;;;;;4.08;100.00;96986.81;2644499;27;20054;-83
2022/09/29 02:51:57;;;;;;;89.18;5.43;;;;;;;3.89;100.00;96990.75;2645066;27;20047;-80
2022/09/29 02:53:38;;;;;;;64.63;5.68;;;;;;;3.95;100.00;96990.63;2643006;27;20500;-81
2022/09/29 02:55:18;;;;;;;52.97;5.15;;;;;;;3.96;100.00;96987.13;2646125;27;20568;-81
2022/09/29 02:57:23;;;;;;;47.72;4.40;;;;;;;3.91;100.00;96984.66;2643268;27;20101;-81
2022/09/29 02:58:53;;;;;;;14.95;3.03;;;;;;;4.08;100.00;96985.97;2600195;27;20072;-81
2022/09/29 03:00:14;;;;;;;45.60;4.32;;;;;;;4.15;100.00;96986.66;2644503;27;20040;-81
2022/09/29 03:01:31;;;;;;;35.47;4.10;;;;;;;4.16;100.00;96981.44;2643942;27;20530;-82
2022/09/29 03:02:47;;;;;;;5.80;3.35;;;;;;;4.41;100.00;96985.13;2643736;27;20096;-81
2022/09/29 03:04:02;;;;;;;17.98;3.85;;;;;;;4.49;100.00;96983.19;2643883;27;20504;-81
2022/09/29 03:05:21;;;;;;;21.45;3.65;;;;;;;4.42;100.00;96985.09;2644140;27;20129;-84
2022/09/29 03:06:36;;;;;;;73.55;5.00;;;;;;;4.42;100.00;96982.50;2643368;27;20055;-81
2022/09/29 03:07:52;;;;;;;58.30;5.75;;;;;;;4.31;100.00;96984.53;2645074;27;20058;-82
2022/09/29 03:09:08;;;;;;;43.90;4.57;;;;;;;4.17;100.00;96977.97;2643544;27;20494;-81
2022/09/29 03:10:23;;;;;;;51.45;4.68;;;;;;;4.03;100.00;96980.06;2643631;27;20089;-82
2022/09/29 03:11:39;;;;;;;27.45;3.78;;;;;;;3.92;100.00;96985.53;2642748;27;20557;-83
2022/09/29 03:12:55;;;;;;;30.15;3.13;;;;;;;3.99;100.00;96978.44;2642937;27;20055;-82
2022/09/29 03:14:11;;;;;;;34.72;3.53;;;;;;;3.90;100.00;96995.91;2645432;27;20050;-81
2022/09/29 03:15:27;;;;;;;41.42;4.15;;;;;;;3.83;100.00;96985.75;2645428;27;20043;-84
2022/09/29 03:16:43;;;;;;;17.52;3.00;;;;;;;3.86;100.00;96986.53;2643525;27;20576;-82
2022/09/29 03:17:59;;;;;;;18.20;3.33;;;;;;;3.79;100.00;96991.00;2642288;27;20090;-81
2022/09/29 03:19:14;;;;;;;43.42;4.28;;;;;;;3.54;100.00;96990.69;2643686;28;20130;-82
2022/09/29 03:20:30;;;;;;;88.25;6.90;;;;;;;3.93;100.00;96995.81;2642499;28;20202;-81
2022/09/29 03:21:45;;;;;;;68.45;4.80;;;;;;;3.64;100.00;96999.13;2641559;28;20048;-82
2022/09/29 03:23:01;;;;;;;13.90;3.20;;;;;;;3.88;100.00;96991.63;2641826;28;20082;-81
2022/09/29 03:24:16;;;;;;;11.27;3.25;;;;;;;4.09;100.00;96993.72;2642816;28;20134;-81
2022/09/29 03:25:32;;;;;;;91.13;5.95;;;;;;;3.97;100.00;96999.19;2643366;28;20043;-81
2022/09/29 03:26:47;;;;;;;92.20;6.05;;;;;;;3.95;100.00;96993.19;2643326;28;20047;-81
2022/09/29 03:28:03;;;;;;;116.07;9.82;;;;;;;4.19;100.00;96998.63;2641274;28;20051;-81
2022/09/29 03:29:19;;;;;;;82.22;5.47;;;;;;;4.06;100.00;96998.09;2642291;28;20077;-81
2022/09/29 03:30:35;;;;;;;32.85;4.05;;;;;;;4.16;100.00;96996.13;2642663;28;20053;-82
2022/09/29 03:31:50;;;;;;;99.50;9.13;;;;;;;4.28;100.00;96997.56;2643343;28;20078;-82
2022/09/29 03:33:06;;;;;;;60.17;6.68;;;;;;;4.20;100.00;96997.78;2642769;28;20054;-82
2022/09/29 03:34:22;;;;;;;90.10;6.78;;;;;;;4.16;100.00;96998.72;2642278;28;20473;-81
2022/09/29 03:35:37;;;;;;;67.90;5.65;;;;;;;4.10;100.00;96998.00;2644338;28;20451;-81
2022/09/29 03:36:53;;;;;;;54.90;5.40;;;;;;;4.10;100.00;96992.81;2644558;28;20092;-81
2022/09/29 03:38:09;;;;;;;67.63;5.63;;;;;;;4.15;100.00;97005.66;2642404;28;20047;-82
2022/09/29 03:39:24;;;;;;;49.70;4.40;;;;;;;4.06;100.00;97005.88;2644493;28;20047;-82
2022/09/29 03:40:40;;;;;;;52.70;5.13;;;;;;;3.86;100.00;97003.78;2640420;28;20282;-81
2022/09/29 03:41:55;;;;;;;80.43;6.22;;;;;;;3.84;100.00;97003.81;2641621;28;20066;-84
2022/09/29 03:43:11;;;;;;;12.20;3.38;;;;;;;3.79;100.00;97009.13;2643879;28;20067;-83
2022/09/29 03:44:27;;;;;;;65.00;4.97;;;;;;;3.83;100.00;97006.44;2644418;28;20045;-82
2022/09/29 03:45:50;;;;;;;72.45;6.68;;;;;;;3.64;100.00;97005.13;2643967;28;20080;-81
2022/09/29 03:47:05;;;;;;;97.30;8.15;;;;;;;3.70;100.00;97009.31;2641409;28;20142;-84
2022/09/29 03:48:22;;;;;;;48.25;5.10;;;;;;;3.56;100.00;97008.78;2631025;28;20048;-82
2022/09/29 03:49:38;;;;;;;53.97;4.93;;;;;;;3.68;100.00;97003.34;2636236;28;20082;-81
2022/09/29 03:50:54;;;;;;;74.85;5.82;;;;;;;3.77;100.00;97003.13;2644917;28;20035;-81
2022/09/29 03:52:09;;;;;;;65.07;5.32;;;;;;;3.80;100.00;97003.03;2641990;28;20047;-81
2022/09/29 03:53:25;;;;;;;64.20;5.95;;;;;;;3.91;100.00;97004.50;2641753;28;20062;-84
2022/09/29 03:54:41;;;;;;;39.22;6.03;;;;;;;3.78;100.00;97004.84;2643462;28;20044;-82
2022/09/29 03:55:56;;;;;;;29.55;4.07;;;;;;;3.74;100.00;97010.94;2643019;28;20048;-82
2022/09/29 03:57:12;;;;;;;28.80;4.40;;;;;;;3.72;100.00;97010.13;2642692;28;20048;-83
2022/09/29 03:58:28;;;;;;;20.33;4.72;;;;;;;3.82;100.00;97000.41;2643358;28;20051;-82
2022/09/29 03:59:44;;;;;;;41.17;5.38;;;;;;;3.89;100.00;97009.75;2641296;28;20127;-81
2022/09/29 04:01:00;;;;;;;39.65;4.35;;;;;;;3.82;100.00;97005.59;2644282;28;20055;-81
2022/09/29 04:02:17;;;;;;;48.67;4.35;;;;;;;3.91;100.00;97001.91;2640649;28;20061;-81
2022/09/29 04:03:33;;;;;;;49.10;4.43;;;;;;;3.83;100.00;97002.09;2641846;28;20104;-82
2022/09/29 04:04:48;;;;;;;42.95;4.10;;;;;;;3.77;100.00;96999.69;2644122;28;20043;-82
2022/09/29 04:06:04;;;;;;;38.83;4.38;;;;;;;3.88;100.00;97004.59;2643061;28;20414;-82
2022/09/29 04:07:19;;;;;;;51.80;5.63;;;;;;;3.86;100.00;97002.06;2643653;28;20108;-81
2022/09/29 04:08:36;;;;;;;37.40;4.38;;;;;;;3.80;100.00;97008.22;2644019;28;20104;-82
2022/09/29 04:09:51;;;;;;;72.22;6.85;;;;;;;3.84;100.00;97002.97;2643775;28;20097;-87
2022/09/29 04:11:07;;;;;;;17.00;3.75;;;;;;;3.92;100.00;97006.22;2631728;28;20467;-80
2022/09/29 04:12:22;;;;;;;44.40;6.00;;;;;;;4.06;100.00;97009.34;2635311;28;20052;-81
2022/09/29 04:13:38;;;;;;;12.45;3.30;;;;;;;4.08;100.00;97004.09;2642477;28;20047;-80
2022/09/29 04:14:54;;;;;;;79.78;6.20;;;;;;;3.88;100.00;97002.00;2641316;28;20039;-80
2022/09/29 04:16:09;;;;;;;58.20;4.63;;;;;;;3.84;100.00;97005.56;2642259;28;20050;-81
2022/09/29 04:17:25;;;;;;;57.05;4.93;;;;;;;3.93;100.00;97006.19;2581445;27;1708356;-81
2022/09/29 04:18:41;;;;;;;77.80;6.43;;;;;;;3.94;100.00;97004.44;2641814;27;20051;-81
2022/09/29 04:19:56;;;;;;;47.83;5.28;;;;;;;3.96;100.00;97008.69;2644872;27;21130;-80
2022/09/29 04:21:12;;;;;;;35.25;4.43;;;;;;;4.07;100.00;97008.44;2642391;27;20047;-82
2022/09/29 04:22:27;;;;;;;40.63;5.70;;;;;;;4.16;100.00;97006.50;2641761;27;20490;-80
2022/09/29 04:23:44;;;;;;;74.00;5.07;;;;;;;3.92;100.00;97008.81;2642589;27;20047;-81
2022/09/29 04:24:59;;;;;;;8.57;3.78;;;;;;;4.19;100.00;97001.22;2641695;27;20054;-81
2022/09/29 04:26:15;;;;;;;138.05;9.75;;;;;;;4.03;100.00;97006.78;2641722;27;20043;-81
2022/09/29 04:27:34;;;;;;;155.85;9.48;;;;;;;4.19;100.00;97003.81;2643523;27;20051;-83
2022/09/29 04:28:49;;;;;;;79.80;6.72;;;;;;;3.81;100.00;97009.94;2641309;27;20818;-82
2022/09/29 04:30:06;;;;;;;238.55;11.20;;;;;;;4.02;100.00;97007.69;2641002;27;20043;-83
2022/09/29 04:31:21;;;;;;;51.83;5.25;;;;;;;3.87;100.00;97003.75;2641933;27;20546;-83
2022/09/29 04:32:37;;;;;;;69.50;5.47;;;;;;;3.50;100.00;97008.06;2644252;27;20453;-84
2022/09/29 04:33:53;;;;;;;53.97;5.00;;;;;;;3.50;100.00;97004.59;2643124;27;20083;-80
2022/09/29 04:35:08;;;;;;;35.97;4.60;;;;;;;3.62;100.00;97004.34;2642900;27;20155;-79
2022/09/29 04:36:24;;;;;;;67.68;4.72;;;;;;;3.65;100.00;97004.25;2642142;27;20681;-82
2022/09/29 04:37:39;;;;;;;15.70;3.10;;;;;;;3.89;100.00;97014.06;2642705;27;20070;-84
2022/09/29 04:38:55;;;;;;;19.67;3.33;;;;;;;4.05;100.00;97004.19;2641027;27;20436;-83
2022/09/29 04:40:11;;;;;;;70.20;6.80;;;;;;;3.91;100.00;97004.50;2642271;27;20043;-82
2022/09/29 04:41:27;;;;;;;59.42;4.95;;;;;;;3.68;100.00;97011.09;2643812;27;20050;-80
2022/09/29 04:42:42;;;;;;;18.10;3.17;;;;;;;3.67;100.00;97006.81;2643052;27;20509;-82
2022/09/29 04:43:58;;;;;;;36.88;4.32;;;;;;;3.91;100.00;97010.53;2642941;27;20044;-82
2022/09/29 04:45:14;;;;;;;32.58;3.90;;;;;;;3.79;100.00;97006.53;2641842;27;20048;-82
2022/09/29 04:46:29;;;;;;;24.27;3.38;;;;;;;3.83;100.00;97012.47;2642655;27;20074;-86
2022/09/29 04:47:45;;;;;;;30.35;3.83;;;;;;;3.71;100.00;97005.84;2641322;27;20500;-83
2022/09/29 04:49:01;;;;;;;60.10;5.68;;;;;;;3.71;100.00;97008.44;2643406;27;20130;-81
2022/09/29 04:50:16;;;;;;;26.83;3.92;;;;;;;3.68;100.00;97008.50;2641075;27;20050;-85
2022/09/29 04:51:32;;;;;;;51.03;5.70;;;;;;;3.65;100.00;97004.25;2641938;27;20533;-84
2022/09/29 04:52:47;;;;;;;50.88;4.63;;;;;;;3.71;100.00;97008.44;2642696;27;20079;-82
2022/09/29 04:54:03;;;;;;;39.67;4.63;;;;;;;3.77;100.00;97005.72;2641254;27;20051;-82
2022/09/29 04:55:19;;;;;;;44.20;5.93;;;;;;;3.71;100.00;97005.84;2641774;27;20607;-82
2022/09/29 04:56:34;;;;;;;24.25;4.43;;;;;;;3.64;100.00;97007.72;2644085;27;20477;-83
2022/09/29 04:57:50;;;;;;;59.85;5.57;;;;;;;3.68;100.00;97011.09;2644153;27;20043;-82
2022/09/29 04:59:06;;;;;;;34.88;4.72;;;;;;;3.70;100.00;97005.88;2644237;27;20047;-84
2022/09/29 05:00:22;;;;;;;31.67;4.18;;;;;;;3.48;100.00;97008.97;2641845;27;20133;-81
2022/09/29 05:01:37;;;;;;;37.88;4.18;;;;;;;3.48;100.00;97009.81;2643359;27;20044;-85
2022/09/29 05:02:53;;;;;;;68.47;5.72;;;;;;;3.46;100.00;97011.59;2641899;27;20058;-83
2022/09/29 05:04:09;;;;;;;18.73;3.55;;;;;;;3.39;100.00;97005.69;2642788;27;20258;-82
2022/09/29 05:05:25;;;;;;;44.45;4.32;;;;;;;3.43;100.00;97010.81;2641966;27;20035;-81
2022/09/29 05:06:40;;;;;;;39.03;4.60;;;;;;;3.55;100.00;97014.84;2642270;27;20944;-83
2022/09/29 05:07:58;;;;;;;39.75;4.25;;;;;;;3.49;100.00;97011.53;2643399;27;20062;-82
2022/09/29 05:09:14;;;;;;;51.17;5.55;;;;;;;3.56;100.00;97017.41;2640949;27;20051;-81
2022/09/29 05:10:30;;;;;;;44.53;4.43;;;;;;;3.36;100.00;97013.53;2644589;27;20172;-81
2022/09/29 05:11:46;;;;;;;54.92;4.68;;;;;;;3.29;100.00;97011.97;2641852;27;20047;-81
2022/09/29 05:13:01;;;;;;;36.20;4.90;;;;;;;3.35;100.00;97013.56;2641637;27;20080;-85
2022/09/29 05:14:17;;;;;;;49.08;5.15;;;;;;;3.39;100.00;97017.78;2644274;27;20043;-81
2022/09/29 05:15:32;;;;;;;61.03;5.82;;;;;;;3.27;100.00;97016.31;2642612;27;20043;-81
2022/09/29 05:16:48;;;;;;;47.80;4.15;;;;;;;3.24;100.00;97019.84;2643444;27;20549;-81
2022/09/29 05:18:03;;;;;;;38.05;5.07;;;;;;;3.27;100.00;97018.06;2641685;27;20059;-81
2022/09/29 05:19:19;;;;;;;51.47;4.50;;;;;;;3.12;100.00;97014.91;2641898;27;20688;-81
2022/09/29 05:20:35;;;;;;;61.97;4.80;;;;;;;3.26;100.00;97022.38;2644137;27;20054;-83
2022/09/29 05:21:50;;;;;;;43.00;4.57;;;;;;;3.38;100.00;97022.09;2643732;27;20067;-81
2022/09/29 05:23:08;;;;;;;37.25;4.63;;;;;;;3.41;100.00;97030.69;2643173;27;20048;-81
2022/09/29 05:24:25;;;;;;;31.88;4.18;;;;;;;3.34;100.00;97024.78;2640996;27;20960;-85
2022/09/29 05:25:42;;;;;;;19.05;3.70;;;;;;;3.43;100.00;97028.94;2642058;27;20083;-84
2022/09/29 05:26:58;;;;;;;36.85;4.82;;;;;;;3.49;100.00;97027.06;2644598;27;20050;-81
2022/09/29 05:28:14;;;;;;;51.83;6.57;;;;;;;3.50;100.00;97028.75;2644451;27;20056;-84
2022/09/29 05:29:30;;;;;;;60.13;6.00;;;;;;;3.50;100.00;97027.91;2640937;27;20054;-81
2022/09/29 05:30:45;;;;;;;46.88;5.05;;;;;;;3.55;100.00;97025.22;2643176;27;20079;-82
2022/09/29 05:32:01;;;;;;;65.85;5.35;;;;;;;3.55;100.00;97027.81;2641482;27;20502;-82
2022/09/29 05:33:16;;;;;;;87.15;7.90;;;;;;;3.59;100.00;97029.41;2642331;27;20051;-81
2022/09/29 05:34:32;;;;;;;85.15;8.95;;;;;;;3.52;100.00;97028.72;2640836;27;20092;-82
2022/09/29 05:35:48;;;;;;;56.17;6.07;;;;;;;3.50;100.00;97033.06;2642008;27;20047;-81
2022/09/29 05:37:03;;;;;;;59.80;7.10;;;;;;;3.50;100.00;97026.19;2641596;27;20048;-82
2022/09/29 05:38:19;;;;;;;69.57;6.90;;;;;;;3.47;100.00;97026.22;2641251;27;20047;-86
2022/09/29 05:39:36;;;;;;;94.13;7.57;;;;;;;3.27;100.00;97023.22;2641684;27;20047;-83
2022/09/29 05:40:52;;;;;;;75.22;6.07;;;;;;;3.31;100.00;97020.56;2642150;27;20039;-81
2022/09/29 05:42:10;;;;;;;51.72;6.82;;;;;;;3.53;100.00;97030.41;2642230;27;20585;-83
2022/09/29 05:43:25;;;;;;;55.70;5.55;;;;;;;3.65;100.00;97030.13;2630518;28;20078;-80
2022/09/29 05:44:42;;;;;;;58.17;5.20;;;;;;;3.47;100.00;97036.56;2636808;27;20051;-79
2022/09/29 05:46:02;;;;;;;62.83;5.55;;;;;;;3.57;100.00;97033.78;2640492;27;20519;-81
2022/09/29 05:47:18;;;;;;;66.88;5.93;;;;;;;3.57;100.00;97037.25;2641164;27;20051;-80
2022/09/29 05:48:34;;;;;;;45.22;5.55;;;;;;;3.65;100.00;97044.81;2641485;28;20047;-79
2022/09/29 05:49:50;;;;;;;39.40;4.50;;;;;;;3.43;100.00;97042.72;2643649;27;20048;-80
2022/09/29 05:51:12;;;;;;;60.08;5.65;;;;;;;3.60;100.00;97044.94;2640659;27;20055;-80
2022/09/29 05:52:27;;;;;;;72.22;8.82;;;;;;;3.73;100.00;97044.66;2640056;27;20047;-81
2022/09/29 05:53:43;;;;;;;66.50;6.35;;;;;;;3.71;100.00;97046.44;2642259;28;20075;-82
2022/09/29 05:54:59;;;;;;;50.22;5.75;;;;;;;3.66;100.00;97047.38;2643122;27;20135;-81
2022/09/29 05:56:20;;;;;;;29.33;4.80;;;;;;;3.77;100.00;97044.56;2640666;27;20055;-82
2022/09/29 05:57:36;;;;;;;19.35;4.15;;;;;;;3.95;100.00;97045.81;2642358;27;20047;-85
2022/09/29 05:58:52;;;;;;;19.67;4.20;;;;;;;3.94;100.00;97048.47;2642272;27;20092;-81
2022/09/29 06:00:08;;;;;;;50.35;5.45;;;;;;;3.80;100.00;97041.00;2641424;28;20074;-81
2022/09/29 06:01:25;;;;;;;37.08;4.53;;;;;;;3.92;100.00;97039.91;2640644;28;20089;-81
2022/09/29 06:02:40;;;;;;;59.05;5.70;;;;;;;3.92;100.00;97047.66;2642560;28;20058;-81
2022/09/29 06:03:56;;;;;;;31.90;4.47;;;;;;;3.66;100.00;97043.94;2643853;28;20574;-82
2022/09/29 06:05:12;;;;;;;42.45;5.35;;;;;;;3.74;100.00;97044.59;2642211;28;20081;-83
2022/09/29 06:06:28;;;;;;;40.05;4.90;;;;;;;3.71;100.00;97043.84;2643131;28;20052;-82
2022/09/29 06:07:44;;;;;;;35.30;5.25;;;;;;;3.70;100.00;97042.09;2641048;28;20051;-86
2022/09/29 06:08:59;;;;;;;36.03;4.70;;;;;;;3.87;100.00;97049.50;2631692;28;20157;-81
2022/09/29 06:10:15;;;;;;;78.07;7.65;;;;;;;3.99;100.00;97045.78;2633351;28;20056;-81